METAR stanice u blizini

 

LYNI - Nis, Yugoslavia
Distance from station: JZ 40km
Ažurirano: 27/09/2023 10:00
Vedro
Vedro
 Pravac vetra ISI
Vetar: ISI 13 km/h
Temperatura: 24°C
Tačka rose: 11°C
Vlažnost: 44%
Pritisak: 1020 hPa
Pregled: Vedro
Vidljivost: greater than 10 km
2023/09/27 08:00 LYNI 270800Z 06007KT 020V140 CAVOK 24/11 Q1020 NOSIG
LYKV - Kraljevo, Yugoslavia
Distance from station: ZSZ 136km
Ažurirano: 27/09/2023 10:00
Few Clouds
Few Clouds
 Pravac vetra calm
Vetar: Tišina
Temperatura: 16°C
Tačka rose: 16°C
Vlažnost: 100%
Pritisak: 1022 hPa
Oblaci: Few Clouds
Vidljivost: 10 km
Cloud details: Few Clouds 91 m
2023/09/27 08:00 LYKV 270800Z 00000KT 9999 FEW003 16/16 Q1022 BECMG 08010KT
LBSF - Sofia (observato, Bulgaria
Distance from station: JI 138km
Ažurirano: 27/09/2023 10:00
Vedro
Vedro
 Pravac vetra I
Vetar: I 15 km/h
Temperatura: 21°C
Tačka rose: 10°C
Vlažnost: 50%
Pritisak: 1021 hPa
Pregled: Vedro
Vidljivost: greater than 10 km
2023/09/27 08:00 LBSF 270800Z 08008KT 030V100 CAVOK 21/10 Q1021 NOSIG
 
BKPR - Prishtina, Yugoslavia
Distance from station: JZ 147km
Ažurirano: 27/09/2023 10:30
Vedro
Vedro
 Pravac vetra S
Vetar: S 30 km/h
Temperatura: 20°C
Tačka rose: 9°C
Vlažnost: 49%
Pritisak: 1020 hPa
Pregled: Vedro
Vidljivost: greater than 10 km
2023/09/27 08:30 BKPR 270830Z 36016KT CAVOK 20/09 Q1020 NOSIG
LRCV - Craiova, Romania
Distance from station: SI 154km
Ažurirano: 27/09/2023 09:30
Vedro
Vedro
 Pravac vetra ISI
Vetar: ISI 19 km/h
Temperatura: 22°C
Tačka rose: 6°C
Vlažnost: 36%
Pritisak: 1023 hPa
Pregled: Vedro
Vidljivost: greater than 10 km
2023/09/27 07:30 LRCV 270730Z 07010KT CAVOK 22/06 Q1023
LWSK - Skopje/Petrovac, Macedonia
Distance from station: JJZ 185km
Ažurirano: 27/09/2023 10:00
Vedro
Vedro
 Pravac vetra Z
Vetar: Z 6 km/h
Temperatura: 22°C
Tačka rose: 11°C
Vlažnost: 50%
Pritisak: 1018 hPa
Pregled: Vedro
Vidljivost: greater than 10 km
2023/09/27 08:00 LWSK 270800Z 27003KT CAVOK 22/11 Q1018 NOSIG
 
LYVR - Vrsac, Yugoslavia
Distance from station: SSZ 189km
Ažurirano: 27/09/2023 10:00
Vedro
Vedro
 Pravac vetra ISI
Vetar: ISI 7 km/h
Temperatura: 25°C
Tačka rose: 12°C
Vlažnost: 44%
Pritisak: 1022 hPa
Pregled: Vedro
Vidljivost: greater than 10 km
2023/09/27 08:00 LYVR 270800Z 07004KT 010V120 CAVOK 25/12 Q1022 NOSIG
LYUZ - Uzice-Ponikve, Yugoslavia
Distance from station: Z 207km
Ažurirano: 04/11/2021 00:30
NOT Current

 Pravac vetra varies
Vetar: varies 9 km/h
Temperatura: 14°C
Tačka rose: 7°C
Vlažnost: 63%
Pritisak: 1010 hPa
Vidljivost: 10 km
2021/11/03 23:30 LYUZ 032330Z AUTO VRB05KT 9999 ////// 14/07 Q1010
LYBE - Belgrade/Surcin, Yugoslavia
Distance from station: SZ 209km
Ažurirano: 27/09/2023 10:00
Vedro
Vedro
 Pravac vetra IJI
Vetar: IJI 22 km/h
Temperatura: 25°C
Tačka rose: 10°C
Vlažnost: 39%
Pritisak: 1022 hPa
Pregled: Vedro
Vidljivost: greater than 10 km
2023/09/27 08:00 LYBE 270800Z 11012KT 080V140 CAVOK 25/10 Q1022 NOSIG
 
LYBT - Batajnica, Yugoslavia
Distance from station: SZ 219km
Ažurirano: 27/09/2023 10:00
Vedro
Vedro
 Pravac vetra ISI
Vetar: ISI 11 km/h
Temperatura: 23°C
Tačka rose: 14°C
Vlažnost: 57%
Pritisak: 1022 hPa
Pregled: Vedro
Vidljivost: greater than 10 km
2023/09/27 08:00 LYBT 270800Z 07006KT 030V110 CAVOK 23/14 Q1022 NOSIG
LRTR - Timisoara/Giarma, Romania
Distance from station: SSZ 260km
Ažurirano: 27/09/2023 10:00
Vedro
Vedro
 Pravac vetra IJI
Vetar: IJI 15 km/h
Temperatura: 22°C
Tačka rose: 12°C
Vlažnost: 53%
Pritisak: 1023 hPa
Pregled: Vedro
Vidljivost: greater than 10 km
2023/09/27 08:00 LRTR 270800Z 11008KT CAVOK 22/12 Q1023
LBPD - Plovdiv, Bulgaria
Distance from station: JI 263km
Ažurirano: 27/09/2023 10:00
Pretežno oblačno
Pretežno oblačno
 Pravac vetra SZ
Vetar: SZ 7 km/h
Temperatura: 23°C
Tačka rose: 12°C
Vlažnost: 50%
Pritisak: 1020 hPa
Oblaci: Pretežno oblačno
Vidljivost: 10 km
Cloud details: Pretežno oblačno 2012 m
2023/09/27 08:00 LBPD 270800Z AUTO 31004KT 250V340 9999 BKN066/// 23/12 Q1020 NOSIG
 
LYPG - Podgorica(Titogr, Yugoslavia
Distance from station: ZJZ 278km
Ažurirano: 27/09/2023 10:00
Vedro
Vedro
 Pravac vetra S
Vetar: S 13 km/h
Temperatura: 25°C
Tačka rose: 9°C
Vlažnost: 36%
Pritisak: 1015 hPa
Pregled: Vedro
Vidljivost: greater than 10 km
2023/09/27 08:00 LYPG 270800Z 35007KT 320V060 CAVOK 25/09 Q1015 NOSIG
LBGO - Gorna Orechovist, Bulgaria
Distance from station: I 285km
Ažurirano: 27/09/2023 10:00
Oblačno
Oblačno
 Pravac vetra ZSZ
Vetar: ZSZ 9 km/h
Temperatura: 20°C
Tačka rose: 12°C
Vlažnost: 60%
Pritisak: 1021 hPa
Oblaci: Oblačno
Vidljivost: 10 km
Cloud details: Oblačno 884 m
2023/09/27 08:00 LBGO 270800Z AUTO 29005KT 260V330 9999 OVC029/// 20/12 Q1021 NOSIG
LRSB - Sibiu/Turnisor, Romania
Distance from station: SSI 286km
Ažurirano: 27/09/2023 10:00
Vedro
Vedro
 Pravac vetra varies
Vetar: varies 4 km/h
Temperatura: 18°C
Tačka rose: 10°C
Vlažnost: 60%
Pritisak: 1026 hPa
Pregled: Vedro
Vidljivost: greater than 10 km
2023/09/27 08:00 LRSB 270800Z VRB02KT CAVOK 18/10 Q1026 NOSIG
 
LWOH - Ohrid, Macedonia
Distance from station: JJZ 292km
Ažurirano: 27/09/2023 10:00
Few Clouds
Few Clouds
 Pravac vetra S
Vetar: S 22 km/h
Temperatura: 21°C
Tačka rose: 9°C
Vlažnost: 46%
Pritisak: 1018 hPa
Oblaci: Few Clouds
Vidljivost: 10 km
Cloud details: Few Clouds 1219 m
2023/09/27 08:00 LWOH 270800Z 35012KT 310V010 9999 FEW040 21/09 Q1018
LQTZ - Tuzla, Yugoslavia
Distance from station: ZSZ 298km
Ažurirano: 27/09/2023 10:00
Few Clouds
Few Clouds
 Pravac vetra varies
Vetar: varies 2 km/h
Temperatura: 15°C
Tačka rose: 15°C
Vlažnost: 100%
Pritisak: 1022 hPa
Oblaci: Few Clouds
Vidljivost: 10 km
Cloud details: Few Clouds 122 m
2023/09/27 08:00 LQTZ 270800Z VRB01KT 9999 FEW004 15/15 Q1022
LRAR - Arad, Romania
Distance from station: SSZ 301km
Ažurirano: 27/09/2023 10:00
Vedro
Vedro
 Pravac vetra I
Vetar: I 19 km/h
Temperatura: 24°C
Tačka rose: 9°C
Vlažnost: 39%
Pritisak: 1023 hPa
Pregled: Vedro
Vidljivost: greater than 10 km
2023/09/27 08:00 LRAR 270800Z 10010KT CAVOK 24/09 Q1023
 
LYTV - Tivat, Yugoslavia
Distance from station: ZJZ 315km
Ažurirano: 27/09/2023 10:00
Vedro
Vedro
 Pravac vetra varies
Vetar: varies 2 km/h
Temperatura: 27°C
Tačka rose: 8°C
Vlažnost: 30%
Pritisak: 1014 hPa
Pregled: Vedro
Vidljivost: greater than 10 km
2023/09/27 08:00 LYTV 270800Z VRB01KT CAVOK 27/08 Q1014 NOSIG
LATI - Tirana, Albania
Distance from station: JZ 316km
Ažurirano: 27/09/2023 10:20
Vedro
Vedro
 Pravac vetra varies
Vetar: varies 4 km/h
Temperatura: 26°C
Tačka rose: 15°C
Vlažnost: 51%
Pritisak: 1013 hPa
Pregled: Vedro
Vidljivost: greater than 10 km
2023/09/27 08:20 LATI 270820Z VRB02KT CAVOK 26/15 Q1013 NOSIG
LQBK - Banja Luka, Yugoslavia
Distance from station: SZ 426km
Ažurirano: 27/09/2023 10:00
Delimično oblačno
Delimično oblačno
 Pravac vetra varies
Vetar: varies 4 km/h
Temperatura: 16°C
Tačka rose: 16°C
Vlažnost: 100%
Pritisak: 1022 hPa
Oblaci: Delimično oblačno
Vidljivost: 10 km
Cloud details: Delimično oblačno 152 m
2023/09/27 08:00 LQBK 270800Z VRB02KT 9999 5000S SCT005 16/16 Q1022 NOSIG
 
LDOS - Osijek, Croatia
Distance from station: SSZ 360km
Ažurirano: 27/09/2023 10:00
Vedro
Vedro
 Pravac vetra ISI
Vetar: ISI 6 km/h
Temperatura: 23°C
Tačka rose: 13°C
Vlažnost: 53%
Pritisak: 1023 hPa
Pregled: Vedro
Vidljivost: greater than 10 km
2023/09/27 08:00 LDOS 270800Z 07003KT 010V130 CAVOK 23/13 Q1023
LDDU - Dubrovnik-Cilipi, Croatia
Distance from station: JZ 352km
Ažurirano: 27/09/2023 10:00
Vedro
Vedro
 Pravac vetra SI
Vetar: SI 9 km/h
Temperatura: 24°C
Tačka rose: 9°C
Vlažnost: 39%
Pritisak: 1015 hPa
Pregled: Vedro
Vidljivost: greater than 10 km
2023/09/27 08:00 LDDU 270800Z 05005KT 360V110 CAVOK 24/09 Q1015 NOSIG
LQMO - Mostar Airport, Bosnia-Herzegovina
Distance from station: Z 359km
Ažurirano: 27/09/2023 10:00
Vedro
Vedro
 Pravac vetra I
Vetar: I 9 km/h
Temperatura: 24°C
Tačka rose: 11°C
Vlažnost: 44%
Pritisak: 1014 hPa
Pregled: Vedro
Vidljivost: greater than 10 km
2023/09/27 08:00 LQMO 270800Z 10005KT 070V190 CAVOK 24/11 Q1014
 
LQSA - Sarajevo/Butmir, Yugoslavia
Distance from station: Z 311km
Ažurirano: 27/09/2023 10:00
Few Clouds
Few Clouds
 Pravac vetra JJZ
Vetar: JJZ 6 km/h
Temperatura: 13°C
Tačka rose: 11°C
Vlažnost: 88%
Pritisak: 1022 hPa
Oblaci: Few Clouds
Vidljivost: 8 km
Cloud details: Few Clouds 152 m
2023/09/27 08:00 LQSA 270800Z 20003KT 130V260 8000 FEW005 13/11 Q1022 NOSIG
LDSP - Split/Kastel Sta, Croatia
Distance from station: Z 468km
Ažurirano: 27/09/2023 10:00
Vedro
Vedro
 Pravac vetra varies
Vetar: varies 2 km/h
Temperatura: 27°C
Tačka rose: 9°C
Vlažnost: 32%
Pritisak: 1016 hPa
Pregled: Vedro
Vidljivost: greater than 10 km
2023/09/27 08:00 LDSP 270800Z VRB01KT CAVOK 27/09 Q1016 NOSIG
LDZD - Zadar/Zemunik, Croatia
Distance from station: ZSZ 567km
Ažurirano: 27/09/2023 10:00
Vedro
Vedro
 Pravac vetra ISI
Vetar: ISI 22 km/h
Temperatura: 26°C
Tačka rose: 10°C
Vlažnost: 37%
Pritisak: 1017 hPa
Pregled: Vedro
Vidljivost: greater than 10 km
2023/09/27 08:00 LDZD 270800Z 06012KT 030V090 CAVOK 26/10 Q1017 NOSIG
 
LDZA - Zagreb/Pleso, Croatia
Distance from station: SZ 555km
Ažurirano: 27/09/2023 10:00
Vedro
Vedro
 Pravac vetra SI
Vetar: SI 7 km/h
Temperatura: 21°C
Tačka rose: 17°C
Vlažnost: 78%
Pritisak: 1022 hPa
Pregled: Vedro
Vidljivost: greater than 10 km
2023/09/27 08:00 LDZA 270800Z 05004KT 350V100 CAVOK 21/17 Q1022 BECMG 04006KT
LJCE - Cerklje, Slovenia
Distance from station: SZ 680km
Ažurirano: 27/09/2023 10:00
Vedro
Vedro
 Pravac vetra calm
Vetar: Tišina
Temperatura: 19°C
Tačka rose: 17°C
Vlažnost: 88%
Pritisak: 1023 hPa
Pregled: Vedro
Vidljivost: greater than 10 km
2023/09/27 08:00 LJCE 270800Z 00000KT CAVOK 19/17 Q1023 RMK BLU
LJMB - Maribor, Slovenia
Distance from station: SZ 616km
Ažurirano: 27/09/2023 10:00
Delimično oblačno
Delimično oblačno
 Pravac vetra S
Vetar: S 11 km/h
Temperatura: 20°C
Tačka rose: 16°C
Vlažnost: 78%
Pritisak: 1024 hPa
Oblaci: Delimično oblačno
Vidljivost: 10 km
Cloud details: Few Clouds 610 m
Delimično oblačno 7620 m
2023/09/27 08:00 LJMB 270800Z 35006KT 9999 FEW020 SCT250 20/16 Q1024
 
LJLJ - Ljubljana/Brnik, Slovenia
Distance from station: SZ 671km
Ažurirano: 27/09/2023 10:00
Few Clouds
Few Clouds
 Pravac vetra varies
Vetar: varies 2 km/h
Temperatura: 19°C
Tačka rose: 13°C
Vlažnost: 68%
Pritisak: 1024 hPa
Oblaci: Few Clouds
Vidljivost: 10 km
Cloud details: Few Clouds 1981 m
2023/09/27 08:00 LJLJ 270800Z VRB01KT 9999 FEW065 19/13 Q1024 NOSIG
LDRI - Rijeka, Croatia
Distance from station: SZ 650km
Ažurirano: 27/09/2023 10:00
Vedro
Vedro
 Pravac vetra varies
Vetar: varies 4 km/h
Temperatura: 25°C
Tačka rose: 12°C
Vlažnost: 44%
Pritisak: 1019 hPa
Pregled: Vedro
Vidljivost: greater than 10 km
2023/09/27 08:00 LDRI 270800Z VRB02KT CAVOK 25/12 Q1019
LDPL - Pula, Croatia
Distance from station: ZSZ 686km
Ažurirano: 27/09/2023 10:00
Vedro
Vedro
 Pravac vetra ISI
Vetar: ISI 30 km/h
Temperatura: 24°C
Tačka rose: 13°C
Vlažnost: 50%
Pritisak: 1018 hPa
Pregled: Vedro
Vidljivost: greater than 10 km
2023/09/27 08:00 LDPL 270800Z 07016KT CAVOK 24/13 Q1018 TEMPO 07015G25KT
 
LJPZ - Portorož, Slovenia
Distance from station: ZSZ 720km
Ažurirano: 27/09/2023 10:00
Vedro
Vedro
 Pravac vetra SI
Vetar: SI 9 km/h
Temperatura: 25°C
Tačka rose: 14°C
Vlažnost: 51%
Pritisak: 1020 hPa
Pregled: Vedro
Vidljivost: greater than 10 km
2023/09/27 08:00 LJPZ 270800Z 05005KT 010V100 CAVOK 25/14 Q1020